sensor_id;sensor_type;location;lat;lon;timestamp;P1;durP1;ratioP1;P2;durP2;ratioP2
71288;SDS011;59068;52.502;9.860;2023-07-28T00:00:19;3.40;;;3.10;;
71288;SDS011;59068;52.502;9.860;2023-07-28T00:02:45;4.40;;;4.00;;
71288;SDS011;59068;52.502;9.860;2023-07-28T00:05:12;5.40;;;3.60;;
71288;SDS011;59068;52.502;9.860;2023-07-28T00:07:39;3.50;;;3.20;;
71288;SDS011;59068;52.502;9.860;2023-07-28T00:10:05;3.73;;;3.17;;
71288;SDS011;59068;52.502;9.860;2023-07-28T00:12:33;2.73;;;2.53;;
71288;SDS011;59068;52.502;9.860;2023-07-28T00:15:00;3.77;;;2.80;;
71288;SDS011;59068;52.502;9.860;2023-07-28T00:17:28;3.10;;;2.73;;
71288;SDS011;59068;52.502;9.860;2023-07-28T00:19:54;3.73;;;3.30;;
71288;SDS011;59068;52.502;9.860;2023-07-28T00:22:21;3.90;;;3.00;;
71288;SDS011;59068;52.502;9.860;2023-07-28T00:24:47;3.47;;;3.00;;
71288;SDS011;59068;52.502;9.860;2023-07-28T00:27:14;3.17;;;2.97;;
71288;SDS011;59068;52.502;9.860;2023-07-28T00:29:40;3.90;;;2.80;;
71288;SDS011;59068;52.502;9.860;2023-07-28T00:32:07;3.93;;;2.77;;
71288;SDS011;59068;52.502;9.860;2023-07-28T00:34:35;2.97;;;2.73;;
71288;SDS011;59068;52.502;9.860;2023-07-28T00:37:02;2.70;;;2.50;;
71288;SDS011;59068;52.502;9.860;2023-07-28T00:39:28;5.80;;;3.00;;
71288;SDS011;59068;52.502;9.860;2023-07-28T00:41:59;2.30;;;2.10;;
71288;SDS011;59068;52.502;9.860;2023-07-28T00:44:25;2.73;;;2.53;;
71288;SDS011;59068;52.502;9.860;2023-07-28T00:46:52;3.90;;;2.40;;
71288;SDS011;59068;52.502;9.860;2023-07-28T00:49:18;3.10;;;2.80;;
71288;SDS011;59068;52.502;9.860;2023-07-28T00:51:46;3.97;;;2.80;;
71288;SDS011;59068;52.502;9.860;2023-07-28T00:54:13;2.80;;;2.60;;
71288;SDS011;59068;52.502;9.860;2023-07-28T00:56:40;3.80;;;3.30;;
71288;SDS011;59068;52.502;9.860;2023-07-28T00:59:06;3.63;;;3.03;;
71288;SDS011;59068;52.502;9.860;2023-07-28T01:01:33;2.90;;;2.70;;
71288;SDS011;59068;52.502;9.860;2023-07-28T01:04:00;3.33;;;2.83;;
71288;SDS011;59068;52.502;9.860;2023-07-28T01:06:27;3.47;;;3.17;;
71288;SDS011;59068;52.502;9.860;2023-07-28T01:09:01;3.30;;;3.00;;
71288;SDS011;59068;52.502;9.860;2023-07-28T01:11:29;4.73;;;3.97;;
71288;SDS011;59068;52.502;9.860;2023-07-28T01:13:56;3.67;;;3.17;;
71288;SDS011;59068;52.502;9.860;2023-07-28T01:16:22;4.87;;;3.47;;
71288;SDS011;59068;52.502;9.860;2023-07-28T01:18:50;5.07;;;3.97;;
71288;SDS011;59068;52.502;9.860;2023-07-28T01:21:17;4.13;;;3.70;;
71288;SDS011;59068;52.502;9.860;2023-07-28T01:23:48;4.73;;;3.57;;
71288;SDS011;59068;52.502;9.860;2023-07-28T01:26:26;4.60;;;3.60;;
71288;SDS011;59068;52.502;9.860;2023-07-28T01:28:56;4.70;;;3.70;;
71288;SDS011;59068;52.502;9.860;2023-07-28T01:31:23;5.63;;;4.23;;
71288;SDS011;59068;52.502;9.860;2023-07-28T01:33:49;4.23;;;3.67;;
71288;SDS011;59068;52.502;9.860;2023-07-28T01:36:16;4.33;;;3.93;;
71288;SDS011;59068;52.502;9.860;2023-07-28T01:38:43;5.57;;;4.23;;
71288;SDS011;59068;52.502;9.860;2023-07-28T01:41:09;4.37;;;3.77;;
71288;SDS011;59068;52.502;9.860;2023-07-28T01:43:37;5.73;;;3.97;;
71288;SDS011;59068;52.502;9.860;2023-07-28T01:46:04;5.43;;;4.37;;
71288;SDS011;59068;52.502;9.860;2023-07-28T01:48:30;4.03;;;3.63;;
71288;SDS011;59068;52.502;9.860;2023-07-28T01:50:57;3.93;;;3.50;;
71288;SDS011;59068;52.502;9.860;2023-07-28T01:53:24;4.83;;;3.33;;
71288;SDS011;59068;52.502;9.860;2023-07-28T01:55:50;4.07;;;3.60;;
71288;SDS011;59068;52.502;9.860;2023-07-28T01:58:17;4.17;;;3.77;;
71288;SDS011;59068;52.502;9.860;2023-07-28T02:00:45;4.33;;;3.07;;
71288;SDS011;59068;52.502;9.860;2023-07-28T02:03:11;4.40;;;3.70;;
71288;SDS011;59068;52.502;9.860;2023-07-28T02:05:38;4.00;;;3.60;;
71288;SDS011;59068;52.502;9.860;2023-07-28T02:08:05;3.93;;;3.23;;
71288;SDS011;59068;52.502;9.860;2023-07-28T02:10:31;4.13;;;3.73;;
71288;SDS011;59068;52.502;9.860;2023-07-28T02:12:58;3.97;;;3.67;;
71288;SDS011;59068;52.502;9.860;2023-07-28T02:15:24;4.43;;;4.03;;
71288;SDS011;59068;52.502;9.860;2023-07-28T02:17:52;4.37;;;3.93;;
71288;SDS011;59068;52.502;9.860;2023-07-28T02:20:19;5.33;;;3.67;;
71288;SDS011;59068;52.502;9.860;2023-07-28T02:22:46;5.13;;;4.50;;
71288;SDS011;59068;52.502;9.860;2023-07-28T02:25:12;6.67;;;4.60;;
71288;SDS011;59068;52.502;9.860;2023-07-28T02:27:39;5.60;;;4.20;;
71288;SDS011;59068;52.502;9.860;2023-07-28T02:30:06;5.63;;;4.53;;
71288;SDS011;59068;52.502;9.860;2023-07-28T02:32:33;4.70;;;4.20;;
71288;SDS011;59068;52.502;9.860;2023-07-28T02:35:01;4.70;;;4.20;;
71288;SDS011;59068;52.502;9.860;2023-07-28T02:37:28;6.07;;;4.73;;
71288;SDS011;59068;52.502;9.860;2023-07-28T02:39:54;4.47;;;4.07;;
71288;SDS011;59068;52.502;9.860;2023-07-28T02:42:21;5.70;;;4.67;;
71288;SDS011;59068;52.502;9.860;2023-07-28T02:44:49;5.30;;;4.63;;
71288;SDS011;59068;52.502;9.860;2023-07-28T02:47:15;5.50;;;4.87;;
71288;SDS011;59068;52.502;9.860;2023-07-28T02:49:42;4.80;;;4.30;;
71288;SDS011;59068;52.502;9.860;2023-07-28T02:52:10;5.57;;;5.07;;
71288;SDS011;59068;52.502;9.860;2023-07-28T02:54:37;7.77;;;5.17;;
71288;SDS011;59068;52.502;9.860;2023-07-28T02:57:03;7.37;;;4.70;;
71288;SDS011;59068;52.502;9.860;2023-07-28T02:59:30;5.37;;;4.63;;
71288;SDS011;59068;52.502;9.860;2023-07-28T03:01:57;6.60;;;4.43;;
71288;SDS011;59068;52.502;9.860;2023-07-28T03:07:11;6.27;;;5.30;;
71288;SDS011;59068;52.502;9.860;2023-07-28T03:09:38;5.97;;;4.37;;
71288;SDS011;59068;52.502;9.860;2023-07-28T03:12:07;5.83;;;5.00;;
71288;SDS011;59068;52.502;9.860;2023-07-28T03:14:34;6.67;;;4.70;;
71288;SDS011;59068;52.502;9.860;2023-07-28T03:17:00;5.07;;;4.57;;
71288;SDS011;59068;52.502;9.860;2023-07-28T03:19:28;5.97;;;4.60;;
71288;SDS011;59068;52.502;9.860;2023-07-28T03:21:54;6.47;;;4.53;;
71288;SDS011;59068;52.502;9.860;2023-07-28T03:24:22;6.70;;;4.83;;
71288;SDS011;59068;52.502;9.860;2023-07-28T03:26:49;5.80;;;5.20;;
71288;SDS011;59068;52.502;9.860;2023-07-28T03:29:15;5.90;;;4.87;;
71288;SDS011;59068;52.502;9.860;2023-07-28T03:31:43;6.70;;;4.70;;
71288;SDS011;59068;52.502;9.860;2023-07-28T03:34:10;7.33;;;5.10;;
71288;SDS011;59068;52.502;9.860;2023-07-28T03:36:36;7.97;;;5.27;;
71288;SDS011;59068;52.502;9.860;2023-07-28T03:39:03;6.57;;;4.73;;
71288;SDS011;59068;52.502;9.860;2023-07-28T03:41:31;5.77;;;4.90;;
71288;SDS011;59068;52.502;9.860;2023-07-28T03:43:57;5.73;;;4.80;;
71288;SDS011;59068;52.502;9.860;2023-07-28T03:46:24;6.23;;;5.27;;
71288;SDS011;59068;52.502;9.860;2023-07-28T03:48:50;6.73;;;4.47;;
71288;SDS011;59068;52.502;9.860;2023-07-28T03:51:18;7.47;;;5.23;;
71288;SDS011;59068;52.502;9.860;2023-07-28T03:53:44;6.23;;;4.40;;
71288;SDS011;59068;52.502;9.860;2023-07-28T03:56:11;5.30;;;4.23;;
71288;SDS011;59068;52.502;9.860;2023-07-28T03:58:39;5.10;;;4.60;;
71288;SDS011;59068;52.502;9.860;2023-07-28T04:01:06;4.97;;;4.47;;
71288;SDS011;59068;52.502;9.860;2023-07-28T04:03:35;5.40;;;4.77;;
71288;SDS011;59068;52.502;9.860;2023-07-28T04:06:05;6.03;;;4.50;;
71288;SDS011;59068;52.502;9.860;2023-07-28T04:08:31;5.40;;;4.90;;
71288;SDS011;59068;52.502;9.860;2023-07-28T04:10:58;4.83;;;4.30;;
71288;SDS011;59068;52.502;9.860;2023-07-28T04:13:25;5.00;;;4.23;;
71288;SDS011;59068;52.502;9.860;2023-07-28T04:15:52;3.20;;;2.90;;
71288;SDS011;59068;52.502;9.860;2023-07-28T04:18:19;4.87;;;3.67;;
71288;SDS011;59068;52.502;9.860;2023-07-28T04:20:46;4.87;;;4.23;;
71288;SDS011;59068;52.502;9.860;2023-07-28T04:23:12;3.70;;;3.30;;
71288;SDS011;59068;52.502;9.860;2023-07-28T04:25:39;5.63;;;3.63;;
71288;SDS011;59068;52.502;9.860;2023-07-28T04:28:05;3.73;;;3.33;;
71288;SDS011;59068;52.502;9.860;2023-07-28T04:30:32;2.90;;;2.67;;
71288;SDS011;59068;52.502;9.860;2023-07-28T04:33:00;2.63;;;2.43;;
71288;SDS011;59068;52.502;9.860;2023-07-28T04:35:26;3.87;;;2.93;;
71288;SDS011;59068;52.502;9.860;2023-07-28T04:37:53;3.13;;;2.73;;
71288;SDS011;59068;52.502;9.860;2023-07-28T04:40:19;5.57;;;3.27;;
71288;SDS011;59068;52.502;9.860;2023-07-28T04:42:46;3.43;;;3.13;;
71288;SDS011;59068;52.502;9.860;2023-07-28T04:45:17;3.67;;;3.10;;
71288;SDS011;59068;52.502;9.860;2023-07-28T04:47:44;3.80;;;3.10;;
71288;SDS011;59068;52.502;9.860;2023-07-28T04:50:12;3.13;;;2.83;;
71288;SDS011;59068;52.502;9.860;2023-07-28T04:52:38;3.20;;;2.90;;
71288;SDS011;59068;52.502;9.860;2023-07-28T04:55:05;5.20;;;3.20;;
71288;SDS011;59068;52.502;9.860;2023-07-28T04:57:32;4.50;;;2.80;;
71288;SDS011;59068;52.502;9.860;2023-07-28T04:59:59;2.73;;;2.50;;
71288;SDS011;59068;52.502;9.860;2023-07-28T05:02:26;4.57;;;2.53;;
71288;SDS011;59068;52.502;9.860;2023-07-28T05:04:52;3.70;;;3.30;;
71288;SDS011;59068;52.502;9.860;2023-07-28T05:07:20;5.53;;;2.93;;
71288;SDS011;59068;52.502;9.860;2023-07-28T05:09:47;4.17;;;3.43;;
71288;SDS011;59068;52.502;9.860;2023-07-28T05:12:13;5.53;;;3.17;;
71288;SDS011;59068;52.502;9.860;2023-07-28T05:14:40;3.37;;;2.67;;
71288;SDS011;59068;52.502;9.860;2023-07-28T05:17:06;2.80;;;2.60;;
71288;SDS011;59068;52.502;9.860;2023-07-28T05:19:33;3.70;;;3.20;;
71288;SDS011;59068;52.502;9.860;2023-07-28T05:22:00;4.17;;;3.13;;
71288;SDS011;59068;52.502;9.860;2023-07-28T05:24:28;5.07;;;3.33;;
71288;SDS011;59068;52.502;9.860;2023-07-28T05:26:54;3.87;;;3.23;;
71288;SDS011;59068;52.502;9.860;2023-07-28T05:29:21;2.70;;;2.50;;
71288;SDS011;59068;52.502;9.860;2023-07-28T05:31:48;3.83;;;3.20;;
71288;SDS011;59068;52.502;9.860;2023-07-28T05:34:14;5.20;;;3.47;;
71288;SDS011;59068;52.502;9.860;2023-07-28T05:36:41;3.97;;;3.53;;
71288;SDS011;59068;52.502;9.860;2023-07-28T05:39:09;4.67;;;3.90;;
71288;SDS011;59068;52.502;9.860;2023-07-28T05:41:37;5.50;;;3.60;;
71288;SDS011;59068;52.502;9.860;2023-07-28T05:44:04;5.23;;;3.47;;
71288;SDS011;59068;52.502;9.860;2023-07-28T05:46:30;4.90;;;3.27;;
71288;SDS011;59068;52.502;9.860;2023-07-28T05:48:57;3.80;;;3.40;;
71288;SDS011;59068;52.502;9.860;2023-07-28T05:51:24;4.37;;;3.70;;
71288;SDS011;59068;52.502;9.860;2023-07-28T05:53:51;4.83;;;3.70;;
71288;SDS011;59068;52.502;9.860;2023-07-28T05:56:17;4.77;;;3.60;;
71288;SDS011;59068;52.502;9.860;2023-07-28T05:58:45;3.90;;;3.50;;
71288;SDS011;59068;52.502;9.860;2023-07-28T06:01:12;4.03;;;3.37;;
71288;SDS011;59068;52.502;9.860;2023-07-28T06:03:38;3.80;;;3.43;;
71288;SDS011;59068;52.502;9.860;2023-07-28T06:06:05;4.73;;;3.90;;
71288;SDS011;59068;52.502;9.860;2023-07-28T06:08:32;4.67;;;3.77;;
71288;SDS011;59068;52.502;9.860;2023-07-28T06:10:58;4.17;;;3.77;;
71288;SDS011;59068;52.502;9.860;2023-07-28T06:13:25;5.00;;;4.13;;
71288;SDS011;59068;52.502;9.860;2023-07-28T06:15:54;3.90;;;3.57;;
71288;SDS011;59068;52.502;9.860;2023-07-28T06:18:21;3.83;;;3.33;;
71288;SDS011;59068;52.502;9.860;2023-07-28T06:20:48;4.90;;;4.10;;
71288;SDS011;59068;52.502;9.860;2023-07-28T06:23:15;5.63;;;4.27;;
71288;SDS011;59068;52.502;9.860;2023-07-28T06:25:41;4.90;;;4.40;;
71288;SDS011;59068;52.502;9.860;2023-07-28T06:28:09;4.80;;;3.90;;
71288;SDS011;59068;52.502;9.860;2023-07-28T06:30:35;5.97;;;4.20;;
71288;SDS011;59068;52.502;9.860;2023-07-28T06:33:05;5.17;;;3.87;;
71288;SDS011;59068;52.502;9.860;2023-07-28T06:35:32;5.13;;;4.07;;
71288;SDS011;59068;52.502;9.860;2023-07-28T06:37:59;3.87;;;3.47;;
71288;SDS011;59068;52.502;9.860;2023-07-28T06:40:27;4.43;;;3.53;;
71288;SDS011;59068;52.502;9.860;2023-07-28T06:42:53;5.47;;;4.40;;
71288;SDS011;59068;52.502;9.860;2023-07-28T06:45:21;3.80;;;3.50;;
71288;SDS011;59068;52.502;9.860;2023-07-28T06:47:47;4.80;;;3.90;;
71288;SDS011;59068;52.502;9.860;2023-07-28T06:50:15;4.40;;;4.00;;
71288;SDS011;59068;52.502;9.860;2023-07-28T06:52:42;3.60;;;3.30;;
71288;SDS011;59068;52.502;9.860;2023-07-28T06:55:09;3.50;;;3.20;;
71288;SDS011;59068;52.502;9.860;2023-07-28T06:57:35;4.57;;;3.83;;
71288;SDS011;59068;52.502;9.860;2023-07-28T07:00:02;3.43;;;3.13;;
71288;SDS011;59068;52.502;9.860;2023-07-28T07:02:29;3.23;;;3.03;;
71288;SDS011;59068;52.502;9.860;2023-07-28T07:04:55;3.90;;;3.13;;
71288;SDS011;59068;52.502;9.860;2023-07-28T07:07:23;3.40;;;3.00;;
71288;SDS011;59068;52.502;9.860;2023-07-28T07:09:51;3.53;;;3.23;;
71288;SDS011;59068;52.502;9.860;2023-07-28T07:12:18;2.77;;;2.57;;
71288;SDS011;59068;52.502;9.860;2023-07-28T07:14:46;2.60;;;2.40;;
71288;SDS011;59068;52.502;9.860;2023-07-28T07:17:13;2.90;;;2.63;;
71288;SDS011;59068;52.502;9.860;2023-07-28T07:19:39;2.80;;;2.60;;
71288;SDS011;59068;52.502;9.860;2023-07-28T07:22:06;3.80;;;2.80;;
71288;SDS011;59068;52.502;9.860;2023-07-28T07:24:34;3.20;;;2.30;;
71288;SDS011;59068;52.502;9.860;2023-07-28T07:27:00;2.87;;;2.47;;
71288;SDS011;59068;52.502;9.860;2023-07-28T07:29:27;3.20;;;2.53;;
71288;SDS011;59068;52.502;9.860;2023-07-28T07:31:54;2.83;;;2.63;;
71288;SDS011;59068;52.502;9.860;2023-07-28T07:34:21;2.90;;;2.37;;
71288;SDS011;59068;52.502;9.860;2023-07-28T07:36:48;2.80;;;2.60;;
71288;SDS011;59068;52.502;9.860;2023-07-28T07:39:14;2.93;;;2.30;;
71288;SDS011;59068;52.502;9.860;2023-07-28T07:41:42;3.07;;;2.87;;
71288;SDS011;59068;52.502;9.860;2023-07-28T07:44:09;2.60;;;2.40;;
71288;SDS011;59068;52.502;9.860;2023-07-28T07:46:36;2.40;;;2.30;;
71288;SDS011;59068;52.502;9.860;2023-07-28T07:49:03;3.60;;;2.40;;
71288;SDS011;59068;52.502;9.860;2023-07-28T07:51:31;2.97;;;2.70;;
71288;SDS011;59068;52.502;9.860;2023-07-28T07:53:59;2.90;;;2.70;;
71288;SDS011;59068;52.502;9.860;2023-07-28T07:56:26;2.80;;;2.60;;
71288;SDS011;59068;52.502;9.860;2023-07-28T07:58:54;2.93;;;2.70;;
71288;SDS011;59068;52.502;9.860;2023-07-28T08:01:21;3.50;;;3.10;;
71288;SDS011;59068;52.502;9.860;2023-07-28T08:03:47;3.20;;;2.90;;
71288;SDS011;59068;52.502;9.860;2023-07-28T08:06:14;3.20;;;3.00;;
71288;SDS011;59068;52.502;9.860;2023-07-28T08:08:40;3.27;;;3.07;;
71288;SDS011;59068;52.502;9.860;2023-07-28T08:11:07;3.10;;;2.80;;
71288;SDS011;59068;52.502;9.860;2023-07-28T08:13:34;4.13;;;2.97;;
71288;SDS011;59068;52.502;9.860;2023-07-28T08:16:01;3.30;;;3.10;;
71288;SDS011;59068;52.502;9.860;2023-07-28T08:18:28;3.43;;;3.13;;
71288;SDS011;59068;52.502;9.860;2023-07-28T08:20:55;3.90;;;3.60;;
71288;SDS011;59068;52.502;9.860;2023-07-28T08:23:21;4.20;;;3.80;;
71288;SDS011;59068;52.502;9.860;2023-07-28T08:25:48;4.37;;;4.07;;
71288;SDS011;59068;52.502;9.860;2023-07-28T08:28:14;3.77;;;3.47;;
71288;SDS011;59068;52.502;9.860;2023-07-28T08:30:41;5.00;;;4.60;;
71288;SDS011;59068;52.502;9.860;2023-07-28T08:33:09;4.87;;;4.47;;
71288;SDS011;59068;52.502;9.860;2023-07-28T08:35:35;5.07;;;4.57;;
71288;SDS011;59068;52.502;9.860;2023-07-28T08:38:02;5.10;;;4.63;;
71288;SDS011;59068;52.502;9.860;2023-07-28T08:40:29;5.43;;;5.03;;
71288;SDS011;59068;52.502;9.860;2023-07-28T08:42:56;4.50;;;4.10;;
71288;SDS011;59068;52.502;9.860;2023-07-28T08:45:22;6.40;;;5.33;;
71288;SDS011;59068;52.502;9.860;2023-07-28T08:47:50;5.57;;;5.07;;
71288;SDS011;59068;52.502;9.860;2023-07-28T08:50:18;5.33;;;4.90;;
71288;SDS011;59068;52.502;9.860;2023-07-28T08:52:45;5.97;;;5.37;;
71288;SDS011;59068;52.502;9.860;2023-07-28T08:55:12;5.07;;;4.67;;
71288;SDS011;59068;52.502;9.860;2023-07-28T08:57:39;4.50;;;4.20;;
71288;SDS011;59068;52.502;9.860;2023-07-28T09:00:08;4.57;;;4.23;;
71288;SDS011;59068;52.502;9.860;2023-07-28T09:02:38;5.57;;;5.07;;
71288;SDS011;59068;52.502;9.860;2023-07-28T09:05:05;5.00;;;4.60;;
71288;SDS011;59068;52.502;9.860;2023-07-28T09:07:35;4.80;;;4.30;;
71288;SDS011;59068;52.502;9.860;2023-07-28T09:10:02;4.40;;;4.10;;
71288;SDS011;59068;52.502;9.860;2023-07-28T09:12:30;4.20;;;3.90;;
71288;SDS011;59068;52.502;9.860;2023-07-28T09:14:57;4.20;;;3.90;;
71288;SDS011;59068;52.502;9.860;2023-07-28T09:17:24;3.80;;;3.60;;
71288;SDS011;59068;52.502;9.860;2023-07-28T09:19:51;3.70;;;3.47;;
71288;SDS011;59068;52.502;9.860;2023-07-28T09:22:18;4.63;;;4.00;;
71288;SDS011;59068;52.502;9.860;2023-07-28T09:24:47;4.37;;;4.07;;
71288;SDS011;59068;52.502;9.860;2023-07-28T09:27:20;4.03;;;3.73;;
71288;SDS011;59068;52.502;9.860;2023-07-28T09:29:48;4.13;;;3.73;;
71288;SDS011;59068;52.502;9.860;2023-07-28T09:32:16;3.67;;;3.37;;
71288;SDS011;59068;52.502;9.860;2023-07-28T09:34:43;3.90;;;3.60;;
71288;SDS011;59068;52.502;9.860;2023-07-28T09:37:09;3.80;;;3.50;;
71288;SDS011;59068;52.502;9.860;2023-07-28T09:39:36;3.00;;;2.80;;
71288;SDS011;59068;52.502;9.860;2023-07-28T09:42:05;3.70;;;3.50;;
71288;SDS011;59068;52.502;9.860;2023-07-28T09:44:35;4.73;;;3.07;;
71288;SDS011;59068;52.502;9.860;2023-07-28T09:49:48;3.33;;;3.13;;
71288;SDS011;59068;52.502;9.860;2023-07-28T09:52:16;3.80;;;3.50;;
71288;SDS011;59068;52.502;9.860;2023-07-28T09:54:47;17.17;;;5.30;;
71288;SDS011;59068;52.502;9.860;2023-07-28T09:57:19;3.97;;;3.10;;
71288;SDS011;59068;52.502;9.860;2023-07-28T09:59:46;3.50;;;3.30;;
71288;SDS011;59068;52.502;9.860;2023-07-28T10:02:15;3.40;;;3.20;;
71288;SDS011;59068;52.502;9.860;2023-07-28T10:04:42;3.70;;;2.70;;
71288;SDS011;59068;52.502;9.860;2023-07-28T10:07:08;3.13;;;2.93;;
71288;SDS011;59068;52.502;9.860;2023-07-28T10:09:35;3.13;;;2.93;;
71288;SDS011;59068;52.502;9.860;2023-07-28T10:12:03;3.70;;;3.40;;
71288;SDS011;59068;52.502;9.860;2023-07-28T10:14:34;3.10;;;2.90;;
71288;SDS011;59068;52.502;9.860;2023-07-28T10:17:03;2.83;;;2.63;;
71288;SDS011;59068;52.502;9.860;2023-07-28T10:19:33;3.10;;;2.90;;
71288;SDS011;59068;52.502;9.860;2023-07-28T10:22:00;2.73;;;2.63;;
71288;SDS011;59068;52.502;9.860;2023-07-28T10:27:27;2.53;;;2.13;;
71288;SDS011;59068;52.502;9.860;2023-07-28T10:29:57;2.60;;;2.43;;
71288;SDS011;59068;52.502;9.860;2023-07-28T10:32:27;3.07;;;2.80;;
71288;SDS011;59068;52.502;9.860;2023-07-28T10:35:00;2.33;;;2.13;;
71288;SDS011;59068;52.502;9.860;2023-07-28T10:37:30;2.93;;;2.83;;
71288;SDS011;59068;52.502;9.860;2023-07-28T10:42:47;2.40;;;2.30;;
71288;SDS011;59068;52.502;9.860;2023-07-28T10:45:16;2.30;;;2.20;;
71288;SDS011;59068;52.502;9.860;2023-07-28T10:47:43;2.80;;;2.60;;
71288;SDS011;59068;52.502;9.860;2023-07-28T10:50:10;2.73;;;2.20;;
71288;SDS011;59068;52.502;9.860;2023-07-28T10:52:39;2.10;;;1.90;;
71288;SDS011;59068;52.502;9.860;2023-07-28T10:55:11;2.00;;;1.90;;
71288;SDS011;59068;52.502;9.860;2023-07-28T10:57:40;2.00;;;1.90;;
71288;SDS011;59068;52.502;9.860;2023-07-28T11:00:07;1.87;;;1.77;;
71288;SDS011;59068;52.502;9.860;2023-07-28T11:02:38;1.67;;;1.57;;
71288;SDS011;59068;52.502;9.860;2023-07-28T11:05:07;1.80;;;1.67;;
71288;SDS011;59068;52.502;9.860;2023-07-28T11:07:36;2.00;;;1.90;;
71288;SDS011;59068;52.502;9.860;2023-07-28T11:10:03;1.63;;;1.53;;
71288;SDS011;59068;52.502;9.860;2023-07-28T11:12:31;2.70;;;1.90;;
71288;SDS011;59068;52.502;9.860;2023-07-28T11:14:58;1.97;;;1.87;;
71288;SDS011;59068;52.502;9.860;2023-07-28T11:17:25;2.00;;;1.90;;
71288;SDS011;59068;52.502;9.860;2023-07-28T11:19:54;1.83;;;1.73;;
71288;SDS011;59068;52.502;9.860;2023-07-28T11:22:21;1.93;;;1.80;;
71288;SDS011;59068;52.502;9.860;2023-07-28T11:24:50;2.20;;;2.00;;
71288;SDS011;59068;52.502;9.860;2023-07-28T11:27:17;2.27;;;2.17;;
71288;SDS011;59068;52.502;9.860;2023-07-28T11:29:44;2.20;;;2.10;;
71288;SDS011;59068;52.502;9.860;2023-07-28T11:32:11;1.77;;;1.67;;
71288;SDS011;59068;52.502;9.860;2023-07-28T11:34:39;1.93;;;1.70;;
71288;SDS011;59068;52.502;9.860;2023-07-28T11:37:08;2.77;;;2.03;;
71288;SDS011;59068;52.502;9.860;2023-07-28T11:39:35;3.10;;;1.50;;
71288;SDS011;59068;52.502;9.860;2023-07-28T11:42:02;1.70;;;1.60;;
71288;SDS011;59068;52.502;9.860;2023-07-28T11:44:29;2.17;;;2.07;;
71288;SDS011;59068;52.502;9.860;2023-07-28T11:46:56;1.93;;;1.83;;
71288;SDS011;59068;52.502;9.860;2023-07-28T11:49:23;2.00;;;1.90;;
71288;SDS011;59068;52.502;9.860;2023-07-28T11:51:50;2.30;;;2.10;;
71288;SDS011;59068;52.502;9.860;2023-07-28T11:54:19;2.10;;;1.90;;
71288;SDS011;59068;52.502;9.860;2023-07-28T11:56:48;3.00;;;1.70;;
71288;SDS011;59068;52.502;9.860;2023-07-28T11:59:16;1.93;;;1.60;;
71288;SDS011;59068;52.502;9.860;2023-07-28T12:01:53;1.83;;;1.73;;
71288;SDS011;59068;52.502;9.860;2023-07-28T12:04:22;1.80;;;1.70;;
71288;SDS011;59068;52.502;9.860;2023-07-28T12:07:05;1.70;;;1.60;;
71288;SDS011;59068;52.502;9.860;2023-07-28T12:09:34;1.30;;;1.30;;
71288;SDS011;59068;52.502;9.860;2023-07-28T12:12:17;2.53;;;1.77;;
71288;SDS011;59068;52.502;9.860;2023-07-28T12:14:44;1.97;;;1.80;;
71288;SDS011;59068;52.502;9.860;2023-07-28T12:17:12;1.67;;;1.57;;
71288;SDS011;59068;52.502;9.860;2023-07-28T12:19:40;1.80;;;1.70;;
71288;SDS011;59068;52.502;9.860;2023-07-28T12:22:07;1.50;;;1.40;;
71288;SDS011;59068;52.502;9.860;2023-07-28T12:24:35;1.90;;;1.70;;
71288;SDS011;59068;52.502;9.860;2023-07-28T12:27:02;1.80;;;1.70;;
71288;SDS011;59068;52.502;9.860;2023-07-28T12:29:29;1.57;;;1.53;;
71288;SDS011;59068;52.502;9.860;2023-07-28T12:31:56;1.77;;;1.30;;
71288;SDS011;59068;52.502;9.860;2023-07-28T12:34:23;2.60;;;1.80;;
71288;SDS011;59068;52.502;9.860;2023-07-28T12:36:49;1.60;;;1.50;;
71288;SDS011;59068;52.502;9.860;2023-07-28T12:39:16;1.80;;;1.70;;
71288;SDS011;59068;52.502;9.860;2023-07-28T12:41:44;1.87;;;1.77;;
71288;SDS011;59068;52.502;9.860;2023-07-28T12:44:11;1.80;;;1.70;;
71288;SDS011;59068;52.502;9.860;2023-07-28T12:46:38;2.60;;;1.60;;
71288;SDS011;59068;52.502;9.860;2023-07-28T12:49:05;1.50;;;1.40;;
71288;SDS011;59068;52.502;9.860;2023-07-28T12:51:32;1.90;;;1.80;;
71288;SDS011;59068;52.502;9.860;2023-07-28T12:53:59;1.80;;;1.70;;
71288;SDS011;59068;52.502;9.860;2023-07-28T12:56:25;1.93;;;1.73;;
71288;SDS011;59068;52.502;9.860;2023-07-28T12:58:53;1.80;;;1.70;;
71288;SDS011;59068;52.502;9.860;2023-07-28T13:01:20;1.70;;;1.53;;
71288;SDS011;59068;52.502;9.860;2023-07-28T13:03:46;2.20;;;1.70;;
71288;SDS011;59068;52.502;9.860;2023-07-28T13:06:13;2.63;;;1.70;;
71288;SDS011;59068;52.502;9.860;2023-07-28T13:08:39;1.70;;;1.57;;
71288;SDS011;59068;52.502;9.860;2023-07-28T13:11:06;1.80;;;1.60;;
71288;SDS011;59068;52.502;9.860;2023-07-28T13:13:32;1.80;;;1.70;;
71288;SDS011;59068;52.502;9.860;2023-07-28T13:16:00;1.80;;;1.57;;
71288;SDS011;59068;52.502;9.860;2023-07-28T13:18:27;1.90;;;1.80;;
71288;SDS011;59068;52.502;9.860;2023-07-28T13:20:54;1.63;;;1.60;;
71288;SDS011;59068;52.502;9.860;2023-07-28T13:23:21;2.03;;;1.93;;
71288;SDS011;59068;52.502;9.860;2023-07-28T13:25:47;2.10;;;2.00;;
71288;SDS011;59068;52.502;9.860;2023-07-28T13:28:14;1.67;;;1.57;;
71288;SDS011;59068;52.502;9.860;2023-07-28T13:30:40;1.60;;;1.50;;
71288;SDS011;59068;52.502;9.860;2023-07-28T13:33:08;1.90;;;1.80;;
71288;SDS011;59068;52.502;9.860;2023-07-28T13:35:35;2.03;;;1.80;;
71288;SDS011;59068;52.502;9.860;2023-07-28T13:38:02;1.80;;;1.70;;
71288;SDS011;59068;52.502;9.860;2023-07-28T13:40:29;1.80;;;1.70;;
71288;SDS011;59068;52.502;9.860;2023-07-28T13:42:55;1.87;;;1.70;;
71288;SDS011;59068;52.502;9.860;2023-07-28T13:45:22;1.63;;;1.53;;
71288;SDS011;59068;52.502;9.860;2023-07-28T13:47:49;1.97;;;1.87;;
71288;SDS011;59068;52.502;9.860;2023-07-28T13:50:17;1.83;;;1.73;;
71288;SDS011;59068;52.502;9.860;2023-07-28T13:52:43;3.20;;;2.07;;
71288;SDS011;59068;52.502;9.860;2023-07-28T13:55:10;1.80;;;1.70;;
71288;SDS011;59068;52.502;9.860;2023-07-28T13:57:36;2.30;;;2.10;;
71288;SDS011;59068;52.502;9.860;2023-07-28T14:00:04;1.60;;;1.50;;
71288;SDS011;59068;52.502;9.860;2023-07-28T14:02:34;2.23;;;2.03;;
71288;SDS011;59068;52.502;9.860;2023-07-28T14:05:00;1.70;;;1.63;;
71288;SDS011;59068;52.502;9.860;2023-07-28T14:07:29;2.10;;;2.00;;
71288;SDS011;59068;52.502;9.860;2023-07-28T14:09:55;2.27;;;2.10;;
71288;SDS011;59068;52.502;9.860;2023-07-28T14:12:22;1.97;;;1.87;;
71288;SDS011;59068;52.502;9.860;2023-07-28T14:14:49;1.87;;;1.77;;
71288;SDS011;59068;52.502;9.860;2023-07-28T14:17:16;2.00;;;1.90;;
71288;SDS011;59068;52.502;9.860;2023-07-28T14:19:42;1.50;;;1.50;;
71288;SDS011;59068;52.502;9.860;2023-07-28T14:22:10;1.80;;;1.63;;
71288;SDS011;59068;52.502;9.860;2023-07-28T14:24:38;2.00;;;1.90;;
71288;SDS011;59068;52.502;9.860;2023-07-28T14:27:05;2.10;;;2.00;;
71288;SDS011;59068;52.502;9.860;2023-07-28T14:29:31;1.70;;;1.60;;
71288;SDS011;59068;52.502;9.860;2023-07-28T14:31:58;1.83;;;1.73;;
71288;SDS011;59068;52.502;9.860;2023-07-28T14:34:25;1.93;;;1.80;;
71288;SDS011;59068;52.502;9.860;2023-07-28T14:36:52;1.97;;;1.87;;
71288;SDS011;59068;52.502;9.860;2023-07-28T14:39:19;1.90;;;1.80;;
71288;SDS011;59068;52.502;9.860;2023-07-28T14:41:47;2.10;;;1.80;;
71288;SDS011;59068;52.502;9.860;2023-07-28T14:44:14;2.87;;;1.97;;
71288;SDS011;59068;52.502;9.860;2023-07-28T14:46:41;3.97;;;2.23;;
71288;SDS011;59068;52.502;9.860;2023-07-28T14:49:08;3.63;;;2.00;;
71288;SDS011;59068;52.502;9.860;2023-07-28T14:51:35;2.27;;;2.17;;
71288;SDS011;59068;52.502;9.860;2023-07-28T14:54:02;2.20;;;2.10;;
71288;SDS011;59068;52.502;9.860;2023-07-28T14:56:29;2.10;;;2.00;;
71288;SDS011;59068;52.502;9.860;2023-07-28T14:58:57;2.33;;;2.03;;